sim
Sign-in with your pilot id or email,
or register
Callsign
Passwort

Schedule Details

Flight Number: RYR2170 (2)
Departure: Thessaloniki International Airport (LGTS) at 12:25
Arrival: Bratislava M. R. Stefanik Airport (LZIB) at 14:15
Route: Ryanair Passenger Schedule. Enter filed route here before submitting Pirep.

Weather Information
Getting current METAR information for LGTS 231950Z 11004KT CAVOK 15/09 Q1022 NOSIG
Getting current METAR information for LZIB 232000Z 05007KT CAVOK 13/10 Q1017

Schedule Frequency

Route Map